Time;durP1;ratioP1;P1;durP2;ratioP2;P2;SDS_P1;SDS_P2;PMS_P1;PMS_P2;Temp;Humidity;BMP_temperature;BMP_pressure;BME280_temperature;BME280_humidity;BME280_pressure;Samples;Min_cycle;Max_cycle;Signal;HPM_P1;HPM_P2
2022/11/23 00:01:31;;;;;;;4.27;2.07;;;9.70;99.90;;;;;;4916911;29;20434;-71
2022/11/23 00:03:59;;;;;;;6.40;1.60;;;9.60;99.90;;;;;;4916885;29;20527;-72
2022/11/23 00:06:25;;;;;;;2.20;1.33;;;9.60;99.90;;;;;;4917370;29;20854;-71
2022/11/23 00:08:52;;;;;;;6.90;2.27;;;9.60;99.90;;;;;;4917093;29;20474;-71
2022/11/23 00:11:18;;;;;;;3.70;1.40;;;9.60;99.90;;;;;;4900144;29;20596;-71
2022/11/23 00:13:44;;;;;;;5.00;2.20;;;9.70;99.90;;;;;;4916975;29;20447;-71
2022/11/23 00:16:15;;;;;;;5.63;2.13;;;9.70;99.90;;;;;;4917185;29;20486;-71
2022/11/23 00:18:41;;;;;;;4.40;1.73;;;9.80;99.90;;;;;;4917032;29;20432;-71
2022/11/23 00:21:13;;;;;;;6.90;2.03;;;9.70;99.90;;;;;;4917112;29;20431;-72
2022/11/23 00:23:38;;;;;;;3.83;2.07;;;9.70;99.90;;;;;;4916879;29;20436;-71
2022/11/23 00:26:04;;;;;;;9.63;1.80;;;9.70;99.90;;;;;;4916969;29;20443;-87
2022/11/23 00:28:30;;;;;;;3.33;1.70;;;9.60;99.90;;;;;;4916912;29;20195;-72
2022/11/23 00:30:56;;;;;;;4.83;1.97;;;9.70;99.90;;;;;;4916479;29;20817;-72
2022/11/23 00:33:22;;;;;;;7.80;2.03;;;9.80;99.90;;;;;;4916958;29;20176;-72
2022/11/23 00:35:57;;;;;;;3.13;2.00;;;9.70;99.90;;;;;;4916807;29;20214;-72
2022/11/23 00:38:22;;;;;;;3.23;1.63;;;9.70;99.90;;;;;;4919955;29;20171;-72
2022/11/23 00:40:48;;;;;;;4.53;1.63;;;9.70;99.90;;;;;;4920694;29;20490;-72
2022/11/23 00:43:13;;;;;;;4.63;1.53;;;9.80;99.90;;;;;;4920522;29;20223;-72
2022/11/23 00:45:39;;;;;;;9.60;2.33;;;9.80;99.90;;;;;;4918849;29;20520;-74
2022/11/23 00:48:04;;;;;;;5.20;1.67;;;9.80;99.90;;;;;;4919135;29;20183;-77
2022/11/23 00:50:30;;;;;;;9.20;2.00;;;9.80;99.90;;;;;;4919235;29;20215;-74
2022/11/23 00:52:55;;;;;;;4.30;2.33;;;9.80;99.90;;;;;;4919501;29;20224;-75
2022/11/23 00:55:21;;;;;;;10.63;2.13;;;9.80;99.90;;;;;;4919606;29;20191;-71
2022/11/23 00:57:46;;;;;;;3.70;1.70;;;9.90;99.90;;;;;;4919229;29;20235;-71
2022/11/23 01:00:12;;;;;;;5.50;1.93;;;9.90;99.90;;;;;;4919576;29;20675;-71
2022/11/23 01:02:38;;;;;;;5.53;1.70;;;9.90;99.90;;;;;;4919034;29;20184;-70
2022/11/23 01:05:04;;;;;;;5.90;2.20;;;9.90;99.90;;;;;;4919145;29;20179;-70
2022/11/23 01:07:29;;;;;;;2.40;1.20;;;9.90;99.90;;;;;;4919210;29;20180;-70
2022/11/23 01:09:55;;;;;;;3.80;2.00;;;10.00;99.90;;;;;;4918714;29;20188;-69
2022/11/23 01:12:21;;;;;;;5.73;1.67;;;10.00;99.90;;;;;;4917845;29;20270;-71
2022/11/23 01:14:46;;;;;;;6.40;1.43;;;10.10;99.90;;;;;;4923498;29;20530;-71
2022/11/23 01:17:12;;;;;;;3.77;1.93;;;9.90;99.90;;;;;;4918189;29;20373;-71
2022/11/23 01:19:37;;;;;;;2.57;1.10;;;9.90;99.90;;;;;;4918679;29;20172;-71
2022/11/23 01:22:03;;;;;;;4.73;1.50;;;9.90;99.90;;;;;;4918577;29;20238;-71
2022/11/23 01:24:29;;;;;;;4.17;1.70;;;10.00;99.90;;;;;;4919139;29;20175;-70
2022/11/23 01:26:55;;;;;;;7.37;1.63;;;9.90;99.90;;;;;;4918915;29;20647;-71
2022/11/23 01:29:24;;;;;;;6.00;1.80;;;9.90;99.90;;;;;;4917520;29;20180;-70
2022/11/23 01:31:49;;;;;;;5.13;1.70;;;9.90;99.90;;;;;;4916826;29;20498;-70
2022/11/23 05:33:01;;;;;;;6.60;1.53;;;9.50;99.90;;;;;;4862281;29;20504;-73
2022/11/23 05:35:27;;;;;;;5.40;1.73;;;9.50;99.90;;;;;;4862872;29;20438;-73
2022/11/23 05:37:52;;;;;;;14.40;2.77;;;9.50;99.90;;;;;;4861799;29;20465;-72
2022/11/23 05:40:18;;;;;;;6.23;2.03;;;9.50;99.90;;;;;;4862366;29;20190;-72
2022/11/23 05:42:44;;;;;;;4.63;2.30;;;9.50;99.90;;;;;;4862322;29;20189;-71
2022/11/23 05:45:09;;;;;;;3.43;1.67;;;9.50;99.90;;;;;;4862232;29;20186;-74
2022/11/23 05:47:35;;;;;;;3.57;1.67;;;9.50;99.90;;;;;;4861708;29;20547;-72
2022/11/23 05:50:00;;;;;;;5.00;1.97;;;9.60;99.90;;;;;;4860806;29;20642;-73
2022/11/23 05:52:26;;;;;;;6.43;2.17;;;9.60;99.90;;;;;;4861866;29;20596;-71
2022/11/23 05:54:52;;;;;;;4.77;1.50;;;9.60;99.90;;;;;;4860877;29;20186;-70
2022/11/23 06:12:46;;;;;;;9.97;2.47;;;9.80;99.90;;;;;;4878038;29;20849;-69
2022/11/23 06:15:12;;;;;;;5.73;1.93;;;9.70;99.90;;;;;;4880481;29;20433;-70
2022/11/23 06:17:37;;;;;;;6.63;3.00;;;9.70;99.90;;;;;;4880267;29;20197;-70
2022/11/23 06:20:05;;;;;;;6.20;2.00;;;9.70;99.90;;;;;;4880153;29;20217;-70
2022/11/23 06:22:30;;;;;;;8.50;2.03;;;9.60;99.90;;;;;;4880189;29;20185;-70
2022/11/23 06:24:56;;;;;;;4.40;2.23;;;9.60;99.90;;;;;;4879617;29;20974;-73
2022/11/23 06:27:22;;;;;;;5.30;2.30;;;9.50;99.90;;;;;;4880236;29;20205;-72
2022/11/23 06:29:47;;;;;;;4.93;2.03;;;9.50;99.90;;;;;;4879816;29;20181;-73
2022/11/23 06:32:13;;;;;;;2.63;1.90;;;9.50;99.90;;;;;;4879271;29;20189;-72
2022/11/23 06:34:39;;;;;;;4.23;1.87;;;9.70;99.90;;;;;;4860906;29;20339;-71
2022/11/23 06:37:04;;;;;;;5.37;1.50;;;9.80;99.90;;;;;;4860177;29;20522;-72
2022/11/23 06:39:30;;;;;;;7.20;1.83;;;9.80;99.90;;;;;;4860929;29;20196;-73
2022/11/23 06:41:55;;;;;;;5.10;2.37;;;9.70;99.90;;;;;;4844482;29;20205;-73
2022/11/23 06:44:21;;;;;;;1.97;1.70;;;9.70;99.90;;;;;;4861441;29;20539;-73
2022/11/23 06:46:46;;;;;;;4.30;1.63;;;9.60;99.90;;;;;;4864650;29;20182;-73
2022/11/23 06:49:12;;;;;;;7.43;2.87;;;9.80;99.90;;;;;;4869752;29;20648;-72
2022/11/23 06:51:37;;;;;;;2.97;1.40;;;9.80;99.90;;;;;;4871348;29;20289;-72
2022/11/23 06:54:03;;;;;;;8.30;2.00;;;9.70;99.90;;;;;;4870277;29;20182;-72
2022/11/23 06:56:30;;;;;;;4.93;1.60;;;9.80;99.90;;;;;;4879383;29;20185;-74
2022/11/23 06:58:56;;;;;;;4.97;1.90;;;9.80;99.90;;;;;;4880789;29;20238;-73
2022/11/23 07:01:22;;;;;;;2.50;2.10;;;9.80;99.90;;;;;;4880680;29;20490;-72
2022/11/23 07:03:47;;;;;;;4.27;1.83;;;9.80;99.90;;;;;;4880449;29;20177;-72
2022/11/23 07:06:13;;;;;;;4.20;1.70;;;9.80;99.90;;;;;;4880737;29;20189;-72
2022/11/23 07:08:42;;;;;;;3.37;2.00;;;9.80;99.90;;;;;;4880604;29;20169;-72
2022/11/23 07:11:10;;;;;;;7.83;1.70;;;9.70;99.90;;;;;;4880518;29;20245;-72
2022/11/23 07:13:35;;;;;;;3.20;1.70;;;9.70;99.90;;;;;;4880420;29;20433;-72
2022/11/23 07:16:01;;;;;;;3.20;1.63;;;9.70;99.90;;;;;;4880633;29;20434;-72
2022/11/23 07:18:28;;;;;;;4.40;2.20;;;9.80;99.90;;;;;;4880362;29;20181;-72
2022/11/23 07:20:55;;;;;;;4.23;2.10;;;9.80;99.90;;;;;;4880511;29;20624;-71
2022/11/23 07:23:21;;;;;;;4.50;1.53;;;9.70;99.90;;;;;;4880420;29;20791;-71
2022/11/23 07:25:46;;;;;;;11.10;2.17;;;9.80;99.90;;;;;;4880150;29;20446;-71
2022/11/23 07:28:13;;;;;;;2.93;1.70;;;9.80;99.90;;;;;;4880279;29;20221;-71
2022/11/23 07:30:38;;;;;;;4.20;1.77;;;9.70;99.90;;;;;;4879680;29;20220;-71
2022/11/23 07:33:09;;;;;;;4.17;1.60;;;9.60;99.90;;;;;;4880310;29;20426;-71
2022/11/23 07:35:39;;;;;;;5.07;1.67;;;9.60;99.90;;;;;;4880157;29;20236;-71
2022/11/23 07:38:06;;;;;;;7.47;2.70;;;9.70;99.90;;;;;;4879579;29;20436;-72
2022/11/23 07:40:33;;;;;;;7.87;2.10;;;9.70;99.90;;;;;;4879906;29;20434;-71
2022/11/23 07:43:00;;;;;;;4.33;2.27;;;9.80;99.90;;;;;;4880058;29;20444;-71
2022/11/23 07:45:26;;;;;;;5.90;2.40;;;9.80;99.90;;;;;;4879962;29;20803;-72
2022/11/23 07:47:59;;;;;;;4.33;1.40;;;9.90;99.90;;;;;;4879128;29;20434;-72
2022/11/23 07:50:24;;;;;;;10.13;3.77;;;9.90;99.90;;;;;;4879786;29;20473;-72
2022/11/23 07:52:51;;;;;;;5.33;2.30;;;9.90;99.90;;;;;;4879963;29;20831;-73
2022/11/23 07:55:16;;;;;;;8.27;2.00;;;9.90;99.90;;;;;;4879756;29;20224;-73
2022/11/23 07:57:42;;;;;;;10.00;1.83;;;9.90;99.90;;;;;;4879693;29;20428;-73
2022/11/23 08:00:08;;;;;;;6.93;2.03;;;9.90;99.90;;;;;;4879719;29;20177;-73
2022/11/23 08:02:34;;;;;;;7.53;1.50;;;10.00;99.90;;;;;;4879489;29;20181;-73
2022/11/23 08:04:59;;;;;;;10.20;1.80;;;10.00;99.90;;;;;;4879701;29;20839;-73
2022/11/23 08:07:24;;;;;;;6.43;2.00;;;10.10;99.90;;;;;;4879571;29;20183;-73
2022/11/23 08:09:50;;;;;;;4.20;1.60;;;10.10;99.90;;;;;;4879567;29;20653;-73
2022/11/23 08:12:16;;;;;;;7.80;1.90;;;10.20;99.90;;;;;;4879385;29;20428;-73
2022/11/23 08:14:41;;;;;;;4.63;1.80;;;10.20;99.90;;;;;;4879486;29;20205;-73
2022/11/23 08:17:07;;;;;;;3.20;1.23;;;10.30;99.90;;;;;;4879586;29;20212;-73
2022/11/23 08:19:33;;;;;;;2.80;1.80;;;10.30;99.90;;;;;;4879349;29;20640;-73
2022/11/23 08:21:58;;;;;;;5.60;1.67;;;10.20;99.90;;;;;;4879106;29;20448;-73
2022/11/23 08:24:24;;;;;;;3.83;2.17;;;10.20;99.90;;;;;;4879433;29;20264;-73
2022/11/23 08:26:49;;;;;;;6.03;1.83;;;10.20;99.90;;;;;;4879273;29;20668;-73
2022/11/23 08:29:15;;;;;;;1.60;1.13;;;10.20;99.90;;;;;;4879047;29;20173;-73
2022/11/23 08:31:40;;;;;;;6.43;2.07;;;10.20;99.90;;;;;;4879320;29;20741;-73
2022/11/23 08:34:06;;;;;;;3.10;1.80;;;10.30;99.90;;;;;;4879402;29;20225;-73
2022/11/23 08:36:31;;;;;;;3.50;1.57;;;10.40;99.90;;;;;;4879333;29;20582;-73
2022/11/23 08:38:57;;;;;;;12.77;2.00;;;10.30;99.90;;;;;;4879253;29;20638;-74
2022/11/23 08:41:22;;;;;;;7.53;1.70;;;10.40;99.90;;;;;;4879233;29;20181;-73
2022/11/23 08:43:49;;;;;;;7.20;2.20;;;10.40;99.90;;;;;;4879272;29;20196;-73
2022/11/23 08:46:14;;;;;;;3.70;1.80;;;10.50;99.90;;;;;;4879301;29;20177;-73
2022/11/23 08:48:40;;;;;;;5.83;1.83;;;10.70;99.90;;;;;;4879139;29;20774;-73
2022/11/23 08:51:06;;;;;;;7.90;2.20;;;10.70;99.90;;;;;;4879189;29;20335;-73
2022/11/23 08:53:32;;;;;;;6.67;2.20;;;10.70;99.90;;;;;;4879121;29;20594;-73
2022/11/23 08:56:01;;;;;;;3.47;2.07;;;10.80;99.90;;;;;;4879245;29;20429;-74
2022/11/23 08:58:27;;;;;;;3.60;2.20;;;10.80;99.90;;;;;;4880717;29;20230;-74
2022/11/23 09:00:52;;;;;;;5.93;2.00;;;10.90;99.90;;;;;;4882908;29;20438;-74
2022/11/23 09:03:18;;;;;;;4.40;1.67;;;11.00;99.90;;;;;;4882879;29;20637;-74
2022/11/23 09:05:44;;;;;;;9.63;3.57;;;11.00;99.90;;;;;;4882862;29;20177;-73
2022/11/23 09:08:10;;;;;;;4.90;1.50;;;11.00;99.90;;;;;;4882733;29;20173;-73
2022/11/23 09:10:36;;;;;;;6.50;1.70;;;11.10;99.90;;;;;;4882430;29;20265;-73
2022/11/23 09:13:02;;;;;;;4.87;2.03;;;11.10;99.90;;;;;;4882872;29;20189;-73
2022/11/23 09:15:27;;;;;;;5.43;1.60;;;11.00;99.90;;;;;;4882674;29;20867;-73
2022/11/23 09:17:53;;;;;;;5.33;2.40;;;11.20;99.90;;;;;;4882668;29;20189;-73
2022/11/23 09:20:19;;;;;;;4.80;1.90;;;11.20;99.90;;;;;;4882644;29;20509;-73
2022/11/23 09:22:50;;;;;;;4.80;1.87;;;11.30;99.90;;;;;;4882605;29;20189;-73
2022/11/23 09:25:16;;;;;;;7.83;1.63;;;11.30;99.90;;;;;;4882642;29;20185;-72
2022/11/23 09:27:41;;;;;;;4.13;1.37;;;11.30;99.90;;;;;;4882334;29;20460;-73
2022/11/23 09:30:07;;;;;;;7.23;3.10;;;11.40;99.90;;;;;;4882333;29;20540;-73
2022/11/23 09:32:33;;;;;;;6.47;2.17;;;11.50;99.90;;;;;;4882287;29;20185;-72
2022/11/23 09:34:58;;;;;;;3.00;2.00;;;11.60;99.90;;;;;;4882418;29;20422;-73
2022/11/23 09:37:24;;;;;;;7.00;2.10;;;11.60;99.90;;;;;;4882284;29;20656;-73
2022/11/23 09:39:49;;;;;;;5.07;1.37;;;11.50;99.90;;;;;;4882302;29;20177;-70
2022/11/23 09:43:03;;;;;;;9.17;2.20;;;11.50;99.90;;;;;;4865317;29;20181;-70
2022/11/23 09:45:37;;;;;;;6.90;2.10;;;11.60;99.90;;;;;;4865351;29;20196;-70
2022/11/23 09:48:27;;;;;;;6.37;1.80;;;11.60;99.90;;;;;;4882004;29;20434;-70
2022/11/23 09:51:03;;;;;;;7.40;1.73;;;11.70;99.90;;;;;;4882020;29;20473;-70
2022/11/23 09:53:37;;;;;;;3.90;2.07;;;11.50;99.90;;;;;;4881776;29;20512;-70
2022/11/23 09:56:03;;;;;;;5.93;2.73;;;11.50;99.90;;;;;;4881794;29;20416;-70
2022/11/23 09:58:36;;;;;;;6.77;2.10;;;11.60;99.90;;;;;;4881744;29;20794;-69
2022/11/23 10:01:06;;;;;;;2.53;1.50;;;11.50;99.90;;;;;;4881598;29;20422;-71
2022/11/23 10:03:35;;;;;;;7.83;2.33;;;11.50;99.90;;;;;;4881606;29;20425;-70
2022/11/23 10:06:19;;;;;;;5.90;1.90;;;11.60;99.90;;;;;;4881784;29;20841;-70
2022/11/23 10:09:27;;;;;;;8.60;2.27;;;11.70;99.90;;;;;;4881462;29;20500;-70
2022/11/23 10:12:22;;;;;;;5.70;2.20;;;11.70;99.90;;;;;;4881361;29;20581;-70
2022/11/23 10:15:25;;;;;;;11.20;2.40;;;11.70;99.90;;;;;;4881383;29;20960;-70
2022/11/23 10:17:57;;;;;;;6.43;2.50;;;11.80;99.90;;;;;;4881392;29;20781;-70
2022/11/23 10:20:54;;;;;;;16.03;2.87;;;11.80;99.90;;;;;;4881405;29;20457;-70
2022/11/23 10:23:33;;;;;;;21.57;3.07;;;11.90;99.90;;;;;;4881334;29;20807;-70
2022/11/23 10:25:59;;;;;;;6.63;2.07;;;11.80;99.90;;;;;;4881398;29;20433;-70
2022/11/23 10:28:28;;;;;;;11.27;2.50;;;11.70;99.90;;;;;;4881204;29;20450;-70
2022/11/23 10:31:04;;;;;;;6.00;2.23;;;11.70;99.90;;;;;;4881150;29;20481;-70
2022/11/23 10:33:42;;;;;;;5.77;2.30;;;11.70;99.90;;;;;;4881106;29;20556;-69
2022/11/23 10:36:12;;;;;;;10.07;3.40;;;11.60;99.90;;;;;;4881181;29;20953;-70
2022/11/23 10:38:37;;;;;;;12.67;3.00;;;11.50;99.90;;;;;;4881115;29;20449;-70
2022/11/23 10:41:08;;;;;;;12.67;2.27;;;11.50;99.90;;;;;;4881217;29;20429;-72
2022/11/23 10:43:48;;;;;;;7.83;1.60;;;11.60;99.90;;;;;;4880959;29;20188;-72
2022/11/23 10:46:34;;;;;;;7.27;2.10;;;11.60;99.90;;;;;;4880958;29;20792;-72
2022/11/23 10:49:20;;;;;;;5.90;2.60;;;11.80;99.90;;;;;;4880897;29;20445;-72
2022/11/23 10:52:02;;;;;;;10.57;3.07;;;11.80;99.90;;;;;;4880778;29;20481;-71
2022/11/23 10:54:34;;;;;;;5.20;2.30;;;11.90;99.90;;;;;;4880779;29;20461;-71
2022/11/23 10:57:19;;;;;;;6.30;2.37;;;11.90;99.90;;;;;;4880604;29;20944;-72
2022/11/23 11:00:25;;;;;;;7.23;2.70;;;11.90;99.90;;;;;;4880538;29;20434;-71
2022/11/23 11:02:53;;;;;;;4.50;1.83;;;11.80;99.90;;;;;;4864690;29;20445;-71
2022/11/23 11:05:47;;;;;;;10.53;3.03;;;11.80;99.90;;;;;;4880885;29;20433;-71
2022/11/23 11:08:20;;;;;;;6.10;1.90;;;11.80;99.90;;;;;;4880664;29;20468;-71
2022/11/23 11:11:18;;;;;;;7.97;2.23;;;11.70;99.90;;;;;;4880179;29;20584;-77
2022/11/23 11:13:46;;;;;;;7.40;2.30;;;11.80;99.90;;;;;;4879060;29;20441;-73
2022/11/23 11:16:24;;;;;;;9.87;2.77;;;11.70;99.90;;;;;;4863651;29;20541;-73
2022/11/23 11:18:50;;;;;;;9.23;2.47;;;11.70;99.90;;;;;;4880391;29;20428;-73
2022/11/23 11:21:22;;;;;;;4.77;1.83;;;11.70;99.90;;;;;;4880194;29;20516;-72
2022/11/23 11:23:54;;;;;;;9.47;1.90;;;11.90;99.90;;;;;;4880404;29;20811;-72
2022/11/23 11:26:25;;;;;;;4.73;1.93;;;11.80;99.90;;;;;;4880405;29;20436;-71
2022/11/23 11:28:53;;;;;;;11.17;2.33;;;11.80;99.90;;;;;;4880388;29;20429;-71
2022/11/23 11:31:46;;;;;;;12.57;2.47;;;11.90;99.90;;;;;;4880269;29;20816;-71
2022/11/23 11:34:44;;;;;;;7.37;2.50;;;12.10;99.90;;;;;;4880177;29;20430;-71
2022/11/23 11:37:41;;;;;;;3.90;2.00;;;12.20;99.90;;;;;;4870323;29;20444;-72
2022/11/23 11:40:19;;;;;;;13.20;2.50;;;12.20;99.90;;;;;;4880207;29;20516;-72
2022/11/23 11:43:04;;;;;;;8.60;2.30;;;12.30;99.90;;;;;;4879934;29;20437;-72
2022/11/23 11:45:39;;;;;;;4.40;2.03;;;12.30;99.90;;;;;;4879853;29;20433;-72
2022/11/23 11:48:21;;;;;;;6.30;1.63;;;12.40;99.90;;;;;;4879893;29;20433;-73
2022/11/23 11:50:51;;;;;;;8.93;2.80;;;12.50;99.90;;;;;;4879848;29;20484;-73
2022/11/23 11:53:27;;;;;;;5.47;2.87;;;12.50;99.90;;;;;;4879798;29;20555;-73
2022/11/23 11:56:00;;;;;;;12.90;3.20;;;12.40;99.90;;;;;;4879774;29;20947;-71
2022/11/23 11:58:26;;;;;;;8.20;2.80;;;12.20;99.90;;;;;;4879776;29;20429;-71
2022/11/23 12:01:10;;;;;;;4.80;2.17;;;12.30;99.90;;;;;;4879659;29;20429;-71
2022/11/23 12:03:41;;;;;;;13.23;2.50;;;12.30;99.90;;;;;;4879746;29;20272;-71
2022/11/23 12:06:28;;;;;;;6.70;2.33;;;12.10;99.90;;;;;;4879599;29;20837;-71
2022/11/23 12:08:57;;;;;;;5.60;2.53;;;12.00;99.90;;;;;;4879577;29;20490;-71
2022/11/23 12:11:23;;;;;;;3.10;1.80;;;11.90;99.90;;;;;;4879169;29;20517;-72
2022/11/23 12:13:52;;;;;;;3.53;1.97;;;11.90;99.90;;;;;;4879527;29;20422;-72
2022/11/23 12:17:00;;;;;;;3.30;2.00;;;12.00;99.90;;;;;;4879376;29;20649;-72
2022/11/23 12:19:35;;;;;;;7.07;2.30;;;11.90;99.90;;;;;;4879531;29;20417;-72
2022/11/23 12:22:22;;;;;;;8.03;2.03;;;11.90;99.90;;;;;;4879475;29;20424;-73
2022/11/23 12:25:18;;;;;;;9.63;2.53;;;11.90;99.90;;;;;;4879395;29;20429;-73
2022/11/23 12:28:15;;;;;;;7.73;2.50;;;12.00;99.90;;;;;;4879295;29;20794;-73
2022/11/23 12:30:50;;;;;;;10.23;2.77;;;11.80;99.90;;;;;;4879287;29;21018;-72
2022/11/23 12:33:53;;;;;;;9.53;2.77;;;11.90;99.90;;;;;;4878958;29;20429;-72
2022/11/23 12:36:37;;;;;;;11.83;3.07;;;11.70;99.90;;;;;;4879540;29;20436;-72
2022/11/23 12:39:29;;;;;;;11.63;2.93;;;11.80;99.90;;;;;;4879415;29;20430;-72
2022/11/23 12:42:20;;;;;;;9.37;3.00;;;11.80;99.90;;;;;;4879145;29;20516;-71
2022/11/23 12:44:55;;;;;;;5.80;2.67;;;11.70;99.90;;;;;;4879157;29;20454;-71
2022/11/23 12:47:45;;;;;;;5.73;2.80;;;11.80;99.90;;;;;;4879145;29;20501;-72
2022/11/23 12:50:38;;;;;;;6.40;3.00;;;11.90;99.90;;;;;;4879494;29;20847;-72
2022/11/23 12:53:33;;;;;;;7.70;2.37;;;11.90;99.90;;;;;;4879278;29;20441;-72
2022/11/23 12:56:17;;;;;;;6.50;2.63;;;11.90;99.90;;;;;;4862515;29;21020;-72
2022/11/23 12:58:45;;;;;;;4.73;2.43;;;11.90;99.90;;;;;;4879138;29;20449;-72
2022/11/23 13:01:23;;;;;;;10.50;2.90;;;11.90;99.90;;;;;;4879224;29;20429;-72
2022/11/23 13:03:52;;;;;;;6.87;2.33;;;11.90;99.90;;;;;;4879233;29;20433;-72
2022/11/23 13:06:49;;;;;;;7.83;2.53;;;11.90;99.90;;;;;;4879195;29;20509;-72
2022/11/23 13:09:38;;;;;;;9.50;2.30;;;11.90;99.90;;;;;;4878992;29;20457;-71
2022/11/23 13:12:29;;;;;;;8.13;2.27;;;11.70;99.90;;;;;;4878921;29;20512;-72
2022/11/23 13:15:21;;;;;;;9.10;2.83;;;11.60;99.90;;;;;;4879161;29;20429;-72
2022/11/23 13:18:17;;;;;;;7.83;2.30;;;11.50;99.90;;;;;;4879128;29;20434;-73
2022/11/23 13:21:20;;;;;;;4.97;1.97;;;11.50;99.90;;;;;;4879021;29;20461;-73
2022/11/23 13:23:46;;;;;;;4.03;2.57;;;11.60;99.90;;;;;;4878906;29;20426;-72
2022/11/23 13:26:13;;;;;;;5.10;2.97;;;11.60;99.90;;;;;;4862239;29;20444;-72
2022/11/23 13:28:39;;;;;;;5.97;2.20;;;11.60;99.90;;;;;;4878907;29;20713;-71
2022/11/23 13:31:13;;;;;;;7.13;2.03;;;11.60;99.90;;;;;;4862144;29;20485;-72
2022/11/23 13:33:40;;;;;;;5.13;2.13;;;11.40;99.90;;;;;;4878708;29;20173;-73
2022/11/23 13:36:10;;;;;;;3.40;2.40;;;11.50;99.90;;;;;;4879056;29;21009;-73
2022/11/23 13:38:41;;;;;;;4.20;3.17;;;11.50;99.90;;;;;;4878585;29;20469;-73
2022/11/23 13:41:59;;;;;;;7.43;2.20;;;11.40;99.90;;;;;;4861930;29;20433;-72
2022/11/23 13:44:27;;;;;;;4.53;2.40;;;11.40;99.90;;;;;;4803308;29;20437;-73
2022/11/23 13:47:06;;;;;;;7.37;2.10;;;11.30;99.90;;;;;;4806436;29;20441;-72
2022/11/23 13:49:41;;;;;;;7.13;2.60;;;11.30;99.90;;;;;;4856895;29;20777;-72
2022/11/23 13:52:24;;;;;;;5.40;3.70;;;11.30;99.90;;;;;;4881710;29;20571;-72
2022/11/23 13:55:00;;;;;;;6.60;2.60;;;11.20;99.90;;;;;;4881843;29;20438;-72
2022/11/23 13:57:25;;;;;;;6.33;2.40;;;11.10;99.90;;;;;;4881958;29;20437;-72
2022/11/23 13:59:51;;;;;;;7.93;2.60;;;11.10;99.90;;;;;;4881591;29;20418;-72
2022/11/23 14:02:16;;;;;;;4.03;2.83;;;11.10;99.90;;;;;;4881701;29;20185;-72
2022/11/23 14:04:44;;;;;;;7.63;2.20;;;11.20;99.90;;;;;;4881780;29;20649;-73
2022/11/23 14:07:28;;;;;;;4.33;2.50;;;11.20;99.90;;;;;;4881756;29;20560;-73
2022/11/23 14:09:59;;;;;;;6.53;2.30;;;11.10;99.90;;;;;;4881821;29;20536;-73
2022/11/23 14:12:43;;;;;;;7.60;2.27;;;11.30;99.90;;;;;;4881244;29;20500;-73
2022/11/23 14:15:29;;;;;;;3.30;1.97;;;11.30;99.90;;;;;;4881799;29;20421;-73
2022/11/23 14:17:57;;;;;;;5.20;2.43;;;11.40;99.90;;;;;;4880474;29;20437;-73
2022/11/23 14:20:29;;;;;;;10.80;2.60;;;11.30;99.90;;;;;;4880795;29;20414;-74
2022/11/23 14:23:22;;;;;;;5.33;2.97;;;11.20;99.90;;;;;;4879906;29;20513;-73
2022/11/23 14:26:06;;;;;;;5.37;2.30;;;11.20;99.90;;;;;;4879885;29;20794;-75
2022/11/23 14:28:51;;;;;;;10.23;2.73;;;11.10;99.90;;;;;;4880470;29;20945;-72
2022/11/23 14:31:35;;;;;;;11.23;3.23;;;11.10;99.90;;;;;;4880454;29;20485;-74
2022/11/23 14:34:23;;;;;;;14.23;3.13;;;11.10;99.90;;;;;;4880391;29;20457;-73
2022/11/23 14:37:09;;;;;;;10.57;2.53;;;11.10;99.90;;;;;;4880368;29;20648;-73
2022/11/23 14:40:14;;;;;;;3.70;2.37;;;10.90;99.90;;;;;;4880227;29;20444;-73
2022/11/23 14:42:49;;;;;;;6.40;2.37;;;10.90;99.90;;;;;;4841838;29;20489;-73
2022/11/23 14:45:15;;;;;;;4.27;2.63;;;10.90;99.90;;;;;;4880089;29;20440;-74
2022/11/23 14:47:41;;;;;;;5.87;2.33;;;10.80;99.90;;;;;;4879908;29;20430;-73
2022/11/23 14:50:22;;;;;;;7.93;3.07;;;10.90;99.90;;;;;;4879514;29;20192;-72
2022/11/23 14:52:48;;;;;;;4.20;2.27;;;10.80;99.90;;;;;;4879940;29;20598;-73
2022/11/23 14:55:27;;;;;;;9.03;2.80;;;10.80;99.90;;;;;;4880870;29;20432;-87
2022/11/23 14:57:57;;;;;;;7.93;1.87;;;10.80;99.90;;;;;;4881234;29;20797;-74
2022/11/23 15:00:25;;;;;;;6.63;2.33;;;10.70;99.90;;;;;;4879807;29;20517;-75
2022/11/23 15:02:51;;;;;;;7.80;2.50;;;10.80;99.90;;;;;;4879676;29;20473;-74
2022/11/23 15:05:30;;;;;;;7.23;2.60;;;10.70;99.90;;;;;;4879856;29;20418;-76
2022/11/23 15:08:01;;;;;;;5.30;2.10;;;10.80;99.90;;;;;;4869674;29;20434;-76
2022/11/23 15:10:52;;;;;;;6.60;1.77;;;10.80;99.90;;;;;;4860840;29;20509;-73
2022/11/23 15:13:23;;;;;;;8.63;2.80;;;10.70;99.90;;;;;;4869030;29;20453;-82
2022/11/23 15:15:54;;;;;;;4.67;2.40;;;10.70;99.90;;;;;;4898315;29;20432;-75
2022/11/23 15:18:34;;;;;;;5.70;1.83;;;10.60;99.90;;;;;;4897653;29;20443;-74
2022/11/23 15:21:11;;;;;;;5.17;2.07;;;10.60;99.90;;;;;;4897598;29;20433;-76
2022/11/23 15:23:57;;;;;;;4.20;1.93;;;10.50;99.90;;;;;;4897971;29;20494;-75
2022/11/23 15:26:23;;;;;;;6.30;2.43;;;10.50;99.90;;;;;;4897960;29;20420;-76
2022/11/23 15:28:50;;;;;;;4.53;1.93;;;10.50;99.90;;;;;;4898257;29;20525;-83
2022/11/23 15:31:35;;;;;;;6.57;1.90;;;10.40;99.90;;;;;;4897781;29;20496;-83
2022/11/23 15:34:10;;;;;;;4.67;1.80;;;10.60;99.90;;;;;;4880933;29;20468;-73
2022/11/23 15:36:38;;;;;;;4.50;2.00;;;10.50;99.90;;;;;;4897650;29;20541;-73
2022/11/23 15:39:08;;;;;;;5.70;2.40;;;10.50;99.90;;;;;;4896884;29;20425;-72
2022/11/23 15:41:36;;;;;;;7.20;2.40;;;10.60;99.90;;;;;;4896699;29;20439;-73
2022/11/23 15:44:34;;;;;;;4.60;2.20;;;10.50;99.90;;;;;;4897273;29;20432;-74
2022/11/23 15:47:04;;;;;;;8.37;2.07;;;10.60;99.90;;;;;;4883006;29;20458;-73
2022/11/23 15:49:30;;;;;;;6.83;2.00;;;10.60;99.90;;;;;;4866931;29;20441;-73
2022/11/23 15:51:59;;;;;;;9.17;2.23;;;10.60;99.90;;;;;;4878533;29;20540;-73
2022/11/23 15:54:33;;;;;;;5.23;2.17;;;10.70;99.90;;;;;;4879796;29;20233;-73
2022/11/23 15:57:00;;;;;;;4.23;2.03;;;10.70;99.90;;;;;;4879997;29;20465;-72
2022/11/23 15:59:40;;;;;;;2.53;1.30;;;10.70;99.90;;;;;;4879647;29;20770;-72
2022/11/23 16:02:22;;;;;;;7.03;2.50;;;10.70;99.90;;;;;;4879654;29;20461;-73
2022/11/23 16:05:03;;;;;;;7.10;1.90;;;10.60;99.90;;;;;;4879708;29;20569;-72
2022/11/23 16:07:28;;;;;;;5.17;1.97;;;10.50;99.90;;;;;;4878747;29;20517;-72
2022/11/23 16:10:20;;;;;;;4.30;2.00;;;10.50;99.90;;;;;;4879672;29;20570;-72
2022/11/23 16:12:53;;;;;;;4.17;2.10;;;10.50;99.90;;;;;;4879451;29;20524;-72
2022/11/23 16:15:37;;;;;;;3.67;1.93;;;10.50;99.90;;;;;;4879551;29;20819;-72
2022/11/23 16:18:18;;;;;;;2.73;1.80;;;10.60;99.90;;;;;;4879593;29;20852;-72
2022/11/23 16:20:45;;;;;;;5.20;2.37;;;10.60;99.90;;;;;;4879244;29;20421;-71
2022/11/23 16:23:20;;;;;;;3.27;1.73;;;10.60;99.90;;;;;;4879360;29;20434;-72
2022/11/23 16:26:00;;;;;;;2.13;1.73;;;10.60;99.90;;;;;;4878864;29;20424;-72
2022/11/23 16:28:38;;;;;;;3.33;1.60;;;10.50;99.90;;;;;;4879303;29;20438;-72
2022/11/23 16:31:04;;;;;;;10.20;2.23;;;10.60;99.90;;;;;;4879435;29;20836;-72
2022/11/23 16:33:29;;;;;;;2.50;1.90;;;10.40;99.90;;;;;;4879246;29;20517;-72
2022/11/23 16:35:55;;;;;;;7.43;1.93;;;10.40;99.90;;;;;;4879302;29;20973;-72
2022/11/23 16:38:21;;;;;;;4.30;2.23;;;10.50;99.90;;;;;;4879329;29;20181;-71
2022/11/23 16:40:48;;;;;;;3.80;1.63;;;10.40;99.90;;;;;;4879196;29;20181;-71
2022/11/23 16:43:14;;;;;;;6.13;1.90;;;10.40;99.90;;;;;;4879305;29;20422;-73
2022/11/23 16:45:44;;;;;;;5.90;1.80;;;10.40;99.90;;;;;;4877945;29;20441;-72
2022/11/23 16:48:25;;;;;;;10.87;2.43;;;10.50;99.90;;;;;;4878051;29;20437;-72
2022/11/23 16:50:52;;;;;;;4.17;2.17;;;10.50;99.90;;;;;;4878317;29;20537;-72
2022/11/23 16:53:18;;;;;;;5.07;2.17;;;10.60;99.90;;;;;;4878039;29;20528;-72
2022/11/23 16:55:50;;;;;;;5.53;1.80;;;10.40;99.90;;;;;;4877907;29;20784;-71
2022/11/23 16:58:16;;;;;;;4.80;1.60;;;10.50;99.90;;;;;;4878118;29;20425;-72
2022/11/23 17:00:41;;;;;;;3.60;1.80;;;10.50;99.90;;;;;;4877293;29;20932;-71
2022/11/23 17:03:17;;;;;;;7.43;2.10;;;10.50;99.90;;;;;;4877846;29;20194;-72
2022/11/23 17:05:42;;;;;;;5.83;1.50;;;10.50;99.90;;;;;;4877442;29;20176;-72
2022/11/23 17:08:08;;;;;;;8.17;2.00;;;10.50;99.90;;;;;;4877325;29;20960;-71
2022/11/23 17:10:36;;;;;;;4.73;1.73;;;10.40;99.90;;;;;;4877732;29;20530;-73
2022/11/23 17:13:03;;;;;;;5.00;1.90;;;10.40;99.90;;;;;;4877182;29;20177;-72
2022/11/23 17:15:29;;;;;;;6.40;2.07;;;10.40;99.90;;;;;;4877429;29;20429;-77
2022/11/23 17:17:55;;;;;;;7.57;1.90;;;10.30;99.90;;;;;;4878129;29;20852;-76
2022/11/23 17:20:21;;;;;;;6.03;2.00;;;10.30;99.90;;;;;;4881014;29;20429;-77
2022/11/23 17:22:50;;;;;;;7.73;2.90;;;10.30;99.90;;;;;;4881723;29;20268;-76
2022/11/23 17:25:16;;;;;;;8.20;2.20;;;10.40;99.90;;;;;;4881709;29;20209;-76
2022/11/23 17:27:44;;;;;;;4.70;2.00;;;10.30;99.90;;;;;;4881331;29;20486;-74
2022/11/23 17:30:14;;;;;;;4.90;2.23;;;10.30;99.90;;;;;;4881500;29;20469;-76